Jay Em, WY

7:03 PM MDT on September 02, 2014 (GMT -0600)
Torrington Main Street Market | Change Station
CLOSE
Current Station
Personal Weather Station
Location: Torrington, WY
Elevation: 4094 ft
Nearby Weather Stations
Active Advisory: Fire Weather Warning

Elev 4094 ft 42.06 °N, 104.18 °W | Updated 8 minutes ago

Clear
Clear
89.5 °F
Feels Like 86 °F
N
0.0
Wind Variable Wind from North
Gusts 0.0 mph

Today
High -- | Low -- °F
--% Chance of Precip.
Yesterday
High -- | Low -- °F
Precip. -- in
6:23 AM 7:29 PM
First Quarter, 56% visible
Pressure 29.74 in
Visibility 10.0 miles
Clouds Clear
Heat Index 86 °F
Dew Point 46 °F
Humidity 22%
Rainfall 0.00 in
Snow Depth Not available.
UV 0 out of 12
Pollen 8.80 out of 12
Air Quality Not available.
Flu Activity Not available.
METAR KTOR 030053Z AUTO 04003KT 10SM CLR 26/09 A2984 RMK AO2 SLP069 T02610094

More Conditions Fewer Conditions

Pressure 29.74 in
Visibility 10.0 miles
Clouds Clear
Heat Index 86 °F
Dew Point 46 °F
Humidity 22%
Rainfall 0.00 in
Snow Depth Not available.
UV 0 out of 12
Pollen 8.80 out of 12
Air Quality Not available.
Flu Activity Not available.
METAR KTOR 030053Z AUTO 04003KT 10SM CLR 26/09 A2984 RMK AO2 SLP069 T02610094

More Conditions Fewer Conditions

10-Day Weather Forecast

Almanac

Astronomy

Sep. 02, 2014 Rise Set
Actual Time 6:23 AM MDT 7:29 PM MDT
Civil Twilight 5:54 AM MDT 7:58 PM MDT
Nautical Twilight 5:20 AM MDT 8:32 PM MDT
Astronomical Twilight 4:44 AM MDT 9:08 PM MDT
Moon 2:18 PM MDT (9/2) No Moon Set
Length of Visible Light 14h 03m
Length of Day
13h 05m
Tomorrow will be 2m 47s shorter.
First Quarter, 56% of the Moon is Illuminated
Today
First Quarter
Sep 8
Full
Sep 15
Last Quarter
Sep 24
New
Oct 1
First Quarter

Today's Extremes

State Highs State Lows

Community

WunderPhotos

Upload Photos

1,749,826 photos uploaded!

Nearby

Snow Depth

Station Depth Elevation
Crow Creek 0 in 8330 ft
Casper Mountain 0 in 7850 ft
South Brush Creek 0 in 8440 ft
Cole Canyon 0 in 5910 ft
Old Battle 0 in 9920 ft

Earthquake Activity

City Distance Mag. Time & Date
No recent earthquake activity has been reported nearby.
Minimum magnitude displayed is 2.5.

Coastal Water Temperatures

Place Temperature
No Stations Reporting

Nearby Weather Stations